Time,TemperatureF,DewpointF,PressureIn,WindDirection,WindDirectionDegrees,WindSpeedMPH,WindSpeedGustMPH,Humidity,HourlyPrecipIn,Conditions,Clouds,dailyrainin,SolarRadiationWatts/m^2,SoftwareType,DateUTC
2013-11-21 00:02:00,18.0,-2.0,-100.00,NNW,328,2.0,3.0,40,0.00,,,0.00,0.000000,,2013-11-21 08:02:00,
2013-11-21 00:12:00,18.0,-2.0,-100.00,NNW,328,2.0,3.0,40,0.00,,,0.00,0.000000,,2013-11-21 08:12:00,
2013-11-21 00:21:00,18.0,-2.0,-100.00,NNW,328,2.0,3.0,40,0.00,,,0.00,0.000000,,2013-11-21 08:21:00,
2013-11-21 00:31:00,18.0,-4.0,-100.00,NNW,333,2.0,6.0,37,0.00,,,0.00,0.000000,,2013-11-21 08:31:00,
2013-11-21 00:52:00,18.0,-4.0,-100.00,NNW,333,2.0,6.0,37,0.00,,,0.00,0.000000,,2013-11-21 08:52:00,
2013-11-21 01:02:00,18.0,-4.0,-100.00,NNW,333,2.0,6.0,37,0.00,,,0.00,0.000000,,2013-11-21 09:02:00,
2013-11-21 01:11:00,18.0,-4.0,-100.00,NNW,333,2.0,6.0,37,0.00,,,0.00,0.000000,,2013-11-21 09:11:00,
2013-11-21 01:22:00,18.0,-4.0,-100.00,NNW,333,2.0,6.0,37,0.00,,,0.00,0.000000,,2013-11-21 09:22:00,
2013-11-21 03:31:00,17.0,-4.0,-100.00,NNW,328,1.0,2.0,38,0.00,,,0.00,0.000000,,2013-11-21 11:31:00,
2013-11-21 03:52:00,17.0,-4.0,-100.00,NNW,328,1.0,2.0,38,0.00,,,0.00,0.000000,,2013-11-21 11:52:00,
2013-11-21 04:02:00,17.0,-4.0,-100.00,NNW,328,1.0,2.0,38,0.00,,,0.00,0.000000,,2013-11-21 12:02:00,
2013-11-21 04:11:00,17.0,-4.0,-100.00,NNW,328,1.0,2.0,38,0.00,,,0.00,0.000000,,2013-11-21 12:11:00,
2013-11-21 04:21:00,17.0,-4.0,-100.00,NNW,328,1.0,2.0,38,0.00,,,0.00,0.000000,,2013-11-21 12:21:00,
2013-11-21 04:31:00,17.0,-3.0,-100.00,WNW,303,1.0,3.0,40,0.00,,,0.00,0.000000,,2013-11-21 12:31:00,
2013-11-21 04:52:00,17.0,-3.0,-100.00,WNW,303,1.0,3.0,40,0.00,,,0.00,0.000000,,2013-11-21 12:52:00,
2013-11-21 05:01:00,17.0,-3.0,-100.00,WNW,303,1.0,3.0,40,0.00,,,0.00,0.000000,,2013-11-21 13:01:00,
2013-11-21 05:11:00,17.0,-3.0,-100.00,WNW,303,1.0,3.0,40,0.00,,,0.00,0.000000,,2013-11-21 13:11:00,
2013-11-21 05:21:00,17.0,-3.0,-100.00,WNW,303,1.0,3.0,40,0.00,,,0.00,0.000000,,2013-11-21 13:21:00,
2013-11-21 05:31:00,18.0,-3.0,-100.00,North,10,1.0,3.0,38,0.00,,,0.00,0.000000,,2013-11-21 13:31:00,
2013-11-21 05:52:00,18.0,-3.0,-100.00,North,10,1.0,3.0,38,0.00,,,0.00,0.000000,,2013-11-21 13:52:00,
2013-11-21 06:02:00,18.0,-3.0,-100.00,North,10,1.0,3.0,38,0.00,,,0.00,0.000000,,2013-11-21 14:02:00,
2013-11-21 06:11:00,18.0,-3.0,-100.00,North,10,1.0,3.0,38,0.00,,,0.00,0.000000,,2013-11-21 14:11:00,
2013-11-21 06:22:00,18.0,-3.0,-100.00,North,10,1.0,3.0,38,0.00,,,0.00,0.000000,,2013-11-21 14:22:00,
2013-11-21 06:52:00,18.0,-2.0,-100.00,South,173,1.0,2.0,41,0.00,,,0.00,0.000000,,2013-11-21 14:52:00,
2013-11-21 07:02:00,18.0,-2.0,-100.00,South,173,1.0,2.0,41,0.00,,,0.00,0.000000,,2013-11-21 15:02:00,
2013-11-21 07:12:00,18.0,-2.0,-100.00,South,173,1.0,2.0,41,0.00,,,0.00,0.000000,,2013-11-21 15:12:00,
2013-11-21 07:31:00,18.0,-2.0,-100.00,NNE,21,1.0,3.0,41,0.00,,,0.00,2.000000,,2013-11-21 15:31:00,
2013-11-21 07:53:00,18.0,-2.0,-100.00,NNE,21,1.0,3.0,41,0.00,,,0.00,2.000000,,2013-11-21 15:53:00,
2013-11-21 08:03:00,18.0,-2.0,-100.00,NNE,21,1.0,3.0,41,0.00,,,0.00,2.000000,,2013-11-21 16:03:00,
2013-11-21 08:13:00,18.0,-2.0,-100.00,NNE,21,1.0,3.0,41,0.00,,,0.00,2.000000,,2013-11-21 16:13:00,
2013-11-21 08:23:00,18.0,-2.0,-100.00,NNE,21,1.0,3.0,41,0.00,,,0.00,2.000000,,2013-11-21 16:23:00,
2013-11-21 08:31:00,21.0,-2.0,-100.00,North,7,2.0,3.0,35,0.00,,,0.00,39.000000,,2013-11-21 16:31:00,
2013-11-21 08:53:00,21.0,-2.0,-100.00,North,7,2.0,3.0,35,0.00,,,0.00,39.000000,,2013-11-21 16:53:00,
2013-11-21 09:03:00,21.0,-2.0,-100.00,North,7,2.0,3.0,35,0.00,,,0.00,39.000000,,2013-11-21 17:03:00,
2013-11-21 09:12:00,21.0,-2.0,-100.00,North,7,2.0,3.0,35,0.00,,,0.00,39.000000,,2013-11-21 17:12:00,
2013-11-21 09:22:00,21.0,-2.0,-100.00,North,7,2.0,3.0,35,0.00,,,0.00,39.000000,,2013-11-21 17:22:00,
2013-11-21 10:31:00,31.0,3.0,-100.00,NNE,17,3.0,6.0,29,0.00,,,0.00,401.000000,,2013-11-21 18:31:00,
2013-11-21 10:52:00,31.0,3.0,-100.00,NNE,17,3.0,6.0,29,0.00,,,0.00,401.000000,,2013-11-21 18:52:00,
2013-11-21 11:02:00,31.0,3.0,-100.00,NNE,17,3.0,6.0,29,0.00,,,0.00,401.000000,,2013-11-21 19:02:00,
2013-11-21 11:12:00,31.0,3.0,-100.00,NNE,17,3.0,6.0,29,0.00,,,0.00,401.000000,,2013-11-21 19:12:00,
2013-11-21 11:22:00,31.0,3.0,-100.00,NNE,17,3.0,6.0,29,0.00,,,0.00,401.000000,,2013-11-21 19:22:00,
2013-11-21 11:31:00,32.0,-1.0,-100.00,NNE,14,4.0,9.0,24,0.00,,,0.00,466.000000,,2013-11-21 19:31:00,
2013-11-21 12:12:00,32.0,-1.0,-100.00,NNE,14,4.0,9.0,24,0.00,,,0.00,466.000000,,2013-11-21 20:12:00,
2013-11-21 12:21:00,32.0,-1.0,-100.00,NNE,14,4.0,9.0,24,0.00,,,0.00,466.000000,,2013-11-21 20:21:00,
2013-11-21 12:31:00,33.0,3.0,-100.00,NNE,14,3.0,9.0,28,0.00,,,0.00,480.000000,,2013-11-21 20:31:00,
2013-11-21 12:52:00,33.0,3.0,-100.00,NNE,14,3.0,9.0,28,0.00,,,0.00,480.000000,,2013-11-21 20:52:00,
2013-11-21 13:02:00,33.0,3.0,-100.00,NNE,14,3.0,9.0,28,0.00,,,0.00,480.000000,,2013-11-21 21:02:00,
2013-11-21 13:11:00,33.0,3.0,-100.00,NNE,14,3.0,9.0,28,0.00,,,0.00,480.000000,,2013-11-21 21:11:00,
2013-11-21 13:21:00,33.0,3.0,-100.00,NNE,14,3.0,9.0,28,0.00,,,0.00,480.000000,,2013-11-21 21:21:00,
2013-11-21 13:31:00,35.0,4.0,-100.00,NE,37,3.0,7.0,26,0.00,,,0.00,439.000000,,2013-11-21 21:31:00,
2013-11-21 14:13:00,35.0,4.0,-100.00,NE,37,3.0,7.0,26,0.00,,,0.00,439.000000,,2013-11-21 22:13:00,
2013-11-21 14:23:00,35.0,4.0,-100.00,NE,37,3.0,7.0,26,0.00,,,0.00,439.000000,,2013-11-21 22:23:00,
2013-11-21 14:31:00,33.0,1.0,-100.00,NNE,20,4.0,9.0,25,0.00,,,0.00,257.000000,,2013-11-21 22:31:00,
2013-11-21 15:12:00,33.0,1.0,-100.00,NNE,20,4.0,9.0,25,0.00,,,0.00,257.000000,,2013-11-21 23:12:00,
2013-11-21 15:22:00,33.0,1.0,-100.00,NNE,20,4.0,9.0,25,0.00,,,0.00,257.000000,,2013-11-21 23:22:00,
2013-11-21 15:31:00,29.0,2.0,-100.00,NNE,14,5.0,9.0,31,0.00,,,0.00,129.000000,,2013-11-21 23:31:00,
2013-11-21 15:53:00,29.0,2.0,-100.00,NNE,14,5.0,9.0,31,0.00,,,0.00,129.000000,,2013-11-21 23:53:00,
2013-11-21 16:02:00,29.0,2.0,-100.00,NNE,14,5.0,9.0,31,0.00,,,0.00,129.000000,,2013-11-22 00:02:00,
2013-11-21 16:11:00,29.0,2.0,-100.00,NNE,14,5.0,9.0,31,0.00,,,0.00,129.000000,,2013-11-22 00:11:00,
2013-11-21 16:22:00,29.0,2.0,-100.00,NNE,14,5.0,9.0,31,0.00,,,0.00,129.000000,,2013-11-22 00:22:00,
2013-11-21 16:31:00,26.0,6.0,-100.00,North,356,3.0,10.0,41,0.00,,,0.00,21.000000,,2013-11-22 00:31:00,
2013-11-21 16:52:00,26.0,6.0,-100.00,North,356,3.0,10.0,41,0.00,,,0.00,21.000000,,2013-11-22 00:52:00,
2013-11-21 17:01:00,26.0,6.0,-100.00,North,356,3.0,10.0,41,0.00,,,0.00,21.000000,,2013-11-22 01:01:00,
2013-11-21 17:12:00,26.0,6.0,-100.00,North,356,3.0,10.0,41,0.00,,,0.00,21.000000,,2013-11-22 01:12:00,
2013-11-21 17:22:00,26.0,6.0,-100.00,North,356,3.0,10.0,41,0.00,,,0.00,21.000000,,2013-11-22 01:22:00,
2013-11-21 17:31:00,23.0,6.0,-100.00,NNW,338,2.0,8.0,48,0.00,,,0.00,1.000000,,2013-11-22 01:31:00,
2013-11-21 17:52:00,23.0,6.0,-100.00,NNW,338,2.0,8.0,48,0.00,,,0.00,1.000000,,2013-11-22 01:52:00,
2013-11-21 18:02:00,23.0,6.0,-100.00,NNW,338,2.0,8.0,48,0.00,,,0.00,1.000000,,2013-11-22 02:02:00,
2013-11-21 18:11:00,23.0,6.0,-100.00,NNW,338,2.0,8.0,48,0.00,,,0.00,1.000000,,2013-11-22 02:11:00,
2013-11-21 18:21:00,23.0,6.0,-100.00,NNW,338,2.0,8.0,48,0.00,,,0.00,1.000000,,2013-11-22 02:21:00,
2013-11-21 18:31:00,21.0,7.0,-100.00,NW,310,2.0,4.0,53,0.00,,,0.00,0.000000,,2013-11-22 02:31:00,
2013-11-21 18:53:00,21.0,7.0,-100.00,NW,310,2.0,4.0,53,0.00,,,0.00,0.000000,,2013-11-22 02:53:00,
2013-11-21 19:02:00,21.0,7.0,-100.00,NW,310,2.0,4.0,53,0.00,,,0.00,0.000000,,2013-11-22 03:02:00,
2013-11-21 19:11:00,21.0,7.0,-100.00,NW,310,2.0,4.0,53,0.00,,,0.00,0.000000,,2013-11-22 03:11:00,
2013-11-21 19:21:00,21.0,7.0,-100.00,NW,310,2.0,4.0,53,0.00,,,0.00,0.000000,,2013-11-22 03:21:00,
2013-11-21 19:31:00,20.0,6.0,-100.00,NNW,333,2.0,4.0,54,0.00,,,0.00,0.000000,,2013-11-22 03:31:00,
2013-11-21 19:54:00,20.0,6.0,-100.00,NNW,333,2.0,4.0,54,0.00,,,0.00,0.000000,,2013-11-22 03:54:00,
2013-11-21 20:03:00,20.0,6.0,-100.00,NNW,333,2.0,4.0,54,0.00,,,0.00,0.000000,,2013-11-22 04:03:00,
2013-11-21 20:13:00,20.0,6.0,-100.00,NNW,333,2.0,4.0,54,0.00,,,0.00,0.000000,,2013-11-22 04:13:00,
2013-11-21 20:23:00,20.0,6.0,-100.00,NNW,333,2.0,4.0,54,0.00,,,0.00,0.000000,,2013-11-22 04:23:00,
2013-11-21 20:31:00,20.0,3.0,-100.00,NW,314,0.0,4.0,47,0.00,,,0.00,0.000000,,2013-11-22 04:31:00,
2013-11-21 20:53:00,20.0,3.0,-100.00,NW,314,0.0,4.0,47,0.00,,,0.00,0.000000,,2013-11-22 04:53:00,
2013-11-21 21:02:00,20.0,3.0,-100.00,NW,314,0.0,4.0,47,0.00,,,0.00,0.000000,,2013-11-22 05:02:00,
2013-11-21 21:12:00,20.0,3.0,-100.00,NW,314,0.0,4.0,47,0.00,,,0.00,0.000000,,2013-11-22 05:12:00,
2013-11-21 21:22:00,20.0,3.0,-100.00,NW,314,0.0,4.0,47,0.00,,,0.00,0.000000,,2013-11-22 05:22:00,
2013-11-21 21:31:00,20.0,4.0,-100.00,South,187,1.0,3.0,48,0.00,,,0.00,0.000000,,2013-11-22 05:31:00,
2013-11-21 21:53:00,20.0,4.0,-100.00,South,187,1.0,3.0,48,0.00,,,0.00,0.000000,,2013-11-22 05:53:00,
2013-11-21 22:02:00,20.0,4.0,-100.00,South,187,1.0,3.0,48,0.00,,,0.00,0.000000,,2013-11-22 06:02:00,
2013-11-21 22:12:00,20.0,4.0,-100.00,South,187,1.0,3.0,48,0.00,,,0.00,0.000000,,2013-11-22 06:12:00,
2013-11-21 22:21:00,20.0,4.0,-100.00,South,187,1.0,3.0,48,0.00,,,0.00,0.000000,,2013-11-22 06:21:00,
2013-11-21 22:31:00,19.0,4.0,-100.00,SSE,161,0.0,3.0,51,0.00,,,0.00,0.000000,,2013-11-22 06:31:00,
2013-11-21 22:52:00,19.0,4.0,-100.00,SSE,161,0.0,3.0,51,0.00,,,0.00,0.000000,,2013-11-22 06:52:00,
2013-11-21 23:02:00,19.0,4.0,-100.00,SSE,161,0.0,3.0,51,0.00,,,0.00,0.000000,,2013-11-22 07:02:00,
2013-11-21 23:12:00,19.0,4.0,-100.00,SSE,161,0.0,3.0,51,0.00,,,0.00,0.000000,,2013-11-22 07:12:00,
2013-11-21 23:21:00,19.0,4.0,-100.00,SSE,161,0.0,3.0,51,0.00,,,0.00,0.000000,,2013-11-22 07:21:00,
2013-11-21 23:31:00,19.0,5.0,-100.00,SSW,198,2.0,4.0,54,0.00,,,0.00,0.000000,,2013-11-22 07:31:00,